createdAt,value
2022-08-21T00:00:45.688Z,16.70
2022-08-21T00:01:45.717Z,14.90
2022-08-21T00:02:46.010Z,14.70
2022-08-21T00:03:45.648Z,14.50
2022-08-21T00:04:48.300Z,13.40
2022-08-21T00:05:46.626Z,15.20
2022-08-21T00:06:45.653Z,15.20
2022-08-21T00:07:45.784Z,15.30
2022-08-21T00:08:45.648Z,13.90
2022-08-21T00:09:45.741Z,14.70
2022-08-21T00:10:45.662Z,15.20
2022-08-21T00:11:45.644Z,15.20
2022-08-21T00:12:45.634Z,13.90
2022-08-21T00:13:45.685Z,14.70
2022-08-21T00:14:45.617Z,13.20
2022-08-21T00:15:45.612Z,15.90
2022-08-21T00:16:45.597Z,15.00
2022-08-21T00:17:45.594Z,12.00
2022-08-21T00:18:45.614Z,14.20
2022-08-21T00:19:45.598Z,11.90
2022-08-21T00:20:45.556Z,12.00
2022-08-21T00:21:45.562Z,13.40
2022-08-21T00:22:46.564Z,11.50
2022-08-21T00:23:45.596Z,13.20
2022-08-21T00:24:45.529Z,13.80
2022-08-21T00:25:45.548Z,15.10
2022-08-21T00:26:45.551Z,13.90
2022-08-21T00:27:45.551Z,15.60
2022-08-21T00:28:45.596Z,15.00
2022-08-21T00:29:45.554Z,13.80
2022-08-21T00:30:45.567Z,15.40
2022-08-21T00:31:45.546Z,16.90
2022-08-21T00:32:45.559Z,16.80
2022-08-21T00:33:45.496Z,14.90
2022-08-21T00:34:45.547Z,17.50
2022-08-21T00:35:45.482Z,15.60
2022-08-21T00:36:45.471Z,16.20
2022-08-21T00:37:45.447Z,17.50
2022-08-21T00:38:45.440Z,17.60
2022-08-21T00:39:45.539Z,17.30
2022-08-21T00:40:45.450Z,16.50
2022-08-21T00:41:45.431Z,18.00
2022-08-21T00:42:59.231Z,17.90
2022-08-21T00:43:47.457Z,18.20
2022-08-21T00:44:45.464Z,19.80
2022-08-21T00:45:45.408Z,16.70
2022-08-21T00:46:45.421Z,16.40
2022-08-21T00:47:45.326Z,16.30
2022-08-21T00:48:45.326Z,16.10
2022-08-21T00:49:45.315Z,16.60
2022-08-21T00:50:45.345Z,15.30
2022-08-21T00:51:45.293Z,15.30
2022-08-21T00:52:45.293Z,16.00
2022-08-21T00:53:45.270Z,18.30
2022-08-21T00:54:46.636Z,16.90
2022-08-21T00:55:45.282Z,20.90
2022-08-21T00:56:45.273Z,16.90
2022-08-21T00:57:45.315Z,17.40
2022-08-21T00:58:45.302Z,17.60
2022-08-21T00:59:45.311Z,19.00
2022-08-21T01:00:45.402Z,18.20
2022-08-21T01:01:45.305Z,19.40
2022-08-21T01:02:45.314Z,20.10
2022-08-21T01:03:45.379Z,17.80
2022-08-21T01:04:45.278Z,18.30
2022-08-21T01:05:45.268Z,17.10
2022-08-21T01:06:45.301Z,19.30
2022-08-21T01:07:45.263Z,17.20
2022-08-21T01:08:46.926Z,19.00
2022-08-21T01:09:45.241Z,18.80
2022-08-21T01:10:45.215Z,20.30
2022-08-21T01:11:45.247Z,17.50
2022-08-21T01:12:45.253Z,18.00
2022-08-21T01:13:45.211Z,18.70
2022-08-21T01:14:45.247Z,17.30
2022-08-21T01:15:45.223Z,17.90
2022-08-21T01:16:45.263Z,18.90
2022-08-21T01:17:45.164Z,16.50
2022-08-21T01:18:45.256Z,17.80
2022-08-21T01:19:45.148Z,17.60
2022-08-21T01:20:45.153Z,17.40
2022-08-21T01:21:45.155Z,18.30
2022-08-21T01:22:45.167Z,17.00
2022-08-21T01:23:45.177Z,15.20
2022-08-21T01:24:45.106Z,16.00
2022-08-21T01:25:45.146Z,18.90
2022-08-21T01:26:45.157Z,14.40
2022-08-21T01:27:45.120Z,16.20
2022-08-21T01:28:45.094Z,17.20
2022-08-21T01:29:45.128Z,15.40
2022-08-21T01:30:45.090Z,15.90
2022-08-21T01:31:45.135Z,14.60
2022-08-21T01:32:45.122Z,14.80
2022-08-21T01:33:45.076Z,16.00
2022-08-21T01:34:45.048Z,15.30
2022-08-21T01:35:44.981Z,15.50
2022-08-21T01:36:44.972Z,19.20
2022-08-21T01:37:44.945Z,15.80
2022-08-21T01:38:45.013Z,16.40
2022-08-21T01:39:45.006Z,14.30
2022-08-21T01:40:44.934Z,14.80
2022-08-21T01:41:45.008Z,14.90
2022-08-21T01:42:44.993Z,16.30
2022-08-21T01:43:45.012Z,15.90
2022-08-21T01:44:44.978Z,16.30
2022-08-21T01:45:44.914Z,14.80
2022-08-21T01:46:44.982Z,14.60
2022-08-21T01:47:44.948Z,14.10
2022-08-21T01:48:44.994Z,16.10
2022-08-21T01:49:44.986Z,17.50
2022-08-21T01:50:44.915Z,15.20
2022-08-21T01:51:44.920Z,15.80
2022-08-21T01:52:44.917Z,16.30
2022-08-21T01:53:44.921Z,14.40
2022-08-21T01:54:44.963Z,16.60
2022-08-21T01:55:44.907Z,15.50
2022-08-21T01:56:44.936Z,15.70
2022-08-21T01:57:44.910Z,16.80
2022-08-21T01:58:44.942Z,16.70
2022-08-21T01:59:44.995Z,16.30
2022-08-21T02:00:45.034Z,16.50
2022-08-21T02:01:44.862Z,17.50
2022-08-21T02:02:44.870Z,17.40
2022-08-21T02:03:44.825Z,16.50
2022-08-21T02:04:44.925Z,17.90
2022-08-21T02:05:44.852Z,15.60
2022-08-21T02:06:44.803Z,17.80
2022-08-21T02:07:44.833Z,16.70
2022-08-21T02:08:44.830Z,17.20
2022-08-21T02:09:44.805Z,15.30
2022-08-21T02:10:49.131Z,16.90
2022-08-21T02:11:44.813Z,16.80
2022-08-21T02:12:44.796Z,15.90
2022-08-21T02:13:44.775Z,15.00
2022-08-21T02:14:44.764Z,15.80
2022-08-21T02:15:44.812Z,16.10
2022-08-21T02:16:44.727Z,16.20
2022-08-21T02:17:44.780Z,15.80
2022-08-21T02:18:44.725Z,14.60
2022-08-21T02:19:44.765Z,17.50
2022-08-21T02:20:44.777Z,20.40
2022-08-21T02:21:44.749Z,19.50
2022-08-21T02:22:44.748Z,20.60
2022-08-21T02:23:44.775Z,17.50
2022-08-21T02:24:54.378Z,19.50
2022-08-21T02:25:45.738Z,20.40
2022-08-21T02:26:44.713Z,19.40
2022-08-21T02:27:44.697Z,20.50
2022-08-21T02:28:44.644Z,19.00
2022-08-21T02:29:44.691Z,19.50
2022-08-21T02:30:44.659Z,20.40
2022-08-21T02:31:44.639Z,18.90
2022-08-21T02:32:44.629Z,20.00
2022-08-21T02:33:44.625Z,19.30
2022-08-21T02:34:44.626Z,21.50
2022-08-21T02:35:44.633Z,19.50
2022-08-21T02:36:44.615Z,19.80
2022-08-21T02:37:45.585Z,19.60
2022-08-21T02:39:11.742Z,20.70
2022-08-21T02:39:45.558Z,21.40
2022-08-21T02:40:48.313Z,21.20
2022-08-21T02:41:45.608Z,20.90
2022-08-21T02:42:44.507Z,19.30
2022-08-21T02:43:44.468Z,17.80
2022-08-21T02:44:44.497Z,16.00
2022-08-21T02:45:44.503Z,19.80
2022-08-21T02:46:44.450Z,19.90
2022-08-21T02:47:44.498Z,22.20
2022-08-21T02:48:44.535Z,20.00
2022-08-21T02:49:44.538Z,18.90
2022-08-21T02:50:44.528Z,19.10
2022-08-21T02:51:44.561Z,16.80
2022-08-21T02:52:44.557Z,18.80
2022-08-21T02:53:44.513Z,19.60
2022-08-21T02:54:44.473Z,21.30
2022-08-21T02:55:44.530Z,19.00
2022-08-21T02:56:44.452Z,20.10
2022-08-21T02:57:44.513Z,20.70
2022-08-21T02:58:44.475Z,20.80
2022-08-21T02:59:44.434Z,21.80
2022-08-21T03:00:44.452Z,21.10
2022-08-21T03:01:44.478Z,20.80
2022-08-21T03:02:44.445Z,19.00
2022-08-21T03:03:44.993Z,22.30
2022-08-21T03:04:46.702Z,21.80
2022-08-21T03:05:45.442Z,25.80
2022-08-21T03:06:44.388Z,25.20
2022-08-21T03:07:44.460Z,22.20
2022-08-21T03:08:44.383Z,23.10
2022-08-21T03:09:55.302Z,23.30
2022-08-21T03:10:45.291Z,22.30
2022-08-21T03:11:45.431Z,24.00
2022-08-21T03:12:44.396Z,22.70
2022-08-21T03:13:44.421Z,26.30
2022-08-21T03:14:44.373Z,24.60
2022-08-21T03:15:44.335Z,25.50
2022-08-21T03:16:44.348Z,23.60
2022-08-21T03:18:50.937Z,27.90
2022-08-21T03:19:52.196Z,26.20
2022-08-21T03:20:52.136Z,27.40
2022-08-21T03:21:52.038Z,27.90
2022-08-21T03:22:52.902Z,28.50
2022-08-21T03:23:52.112Z,23.10
2022-08-21T03:24:52.140Z,25.10
2022-08-21T03:25:52.150Z,24.80
2022-08-21T03:26:52.146Z,24.90
2022-08-21T03:27:54.935Z,25.10
2022-08-21T03:28:53.176Z,25.00
2022-08-21T03:29:52.145Z,26.70
2022-08-21T03:30:52.086Z,24.40
2022-08-21T03:31:52.161Z,25.40
2022-08-21T03:32:52.074Z,19.80
2022-08-21T03:33:52.159Z,24.70
2022-08-21T03:34:52.054Z,25.60
2022-08-21T03:35:52.050Z,28.60
2022-08-21T03:36:52.020Z,24.80
2022-08-21T03:37:51.953Z,26.30
2022-08-21T03:38:52.047Z,29.90
2022-08-21T03:39:52.151Z,27.60
2022-08-21T03:40:52.051Z,24.00
2022-08-21T03:41:52.007Z,21.90
2022-08-21T03:42:51.998Z,22.80
2022-08-21T03:43:52.005Z,23.10
2022-08-21T03:44:52.013Z,21.70
2022-08-21T03:45:52.575Z,23.50
2022-08-21T03:46:52.015Z,24.20
2022-08-21T03:47:51.994Z,22.60
2022-08-21T03:48:51.987Z,25.50
2022-08-21T03:49:51.997Z,25.80
2022-08-21T03:50:52.001Z,24.40
2022-08-21T03:51:59.125Z,22.70
2022-08-21T03:52:52.992Z,18.80
2022-08-21T03:53:51.886Z,19.20
2022-08-21T03:54:52.053Z,19.30
2022-08-21T03:55:51.919Z,22.90
2022-08-21T03:56:51.816Z,20.30
2022-08-21T03:57:51.811Z,19.90
2022-08-21T03:58:51.796Z,20.20
2022-08-21T03:59:51.813Z,19.70
2022-08-21T04:00:51.824Z,19.70
2022-08-21T04:01:51.841Z,18.10
2022-08-21T04:02:51.773Z,19.50
2022-08-21T04:03:51.783Z,19.80
2022-08-21T04:04:51.764Z,19.40
2022-08-21T04:05:51.807Z,17.00
2022-08-21T04:06:51.726Z,20.10
2022-08-21T04:07:51.748Z,23.10
2022-08-21T04:08:51.703Z,23.20
2022-08-21T04:09:51.756Z,28.40
2022-08-21T04:10:51.823Z,23.80
2022-08-21T04:11:51.907Z,24.30
2022-08-21T04:12:51.814Z,24.30
2022-08-21T04:13:51.822Z,22.10
2022-08-21T04:14:51.771Z,20.80
2022-08-21T04:15:51.826Z,21.70
2022-08-21T04:16:51.981Z,21.80
2022-08-21T04:17:51.854Z,20.90
2022-08-21T04:18:51.737Z,25.10
2022-08-21T04:19:53.799Z,22.00
2022-08-21T04:20:52.737Z,21.70
2022-08-21T04:21:52.618Z,21.80
2022-08-21T04:22:51.983Z,21.10
2022-08-21T04:23:51.724Z,21.00
2022-08-21T04:24:51.681Z,22.20
2022-08-21T04:25:51.703Z,21.20
2022-08-21T04:26:51.667Z,18.80
2022-08-21T04:27:51.720Z,18.40
2022-08-21T04:28:51.682Z,18.70
2022-08-21T04:29:51.675Z,19.00
2022-08-21T04:30:51.656Z,18.10
2022-08-21T04:31:51.636Z,23.30
2022-08-21T04:32:51.712Z,20.70
2022-08-21T04:33:51.663Z,23.50
2022-08-21T04:34:51.682Z,22.80
2022-08-21T04:35:51.635Z,23.90
2022-08-21T04:36:51.649Z,20.50
2022-08-21T04:37:51.587Z,22.40
2022-08-21T04:38:51.720Z,21.50
2022-08-21T04:39:53.567Z,21.30
2022-08-21T04:40:52.635Z,23.20
2022-08-21T04:41:51.596Z,19.80
2022-08-21T04:42:51.619Z,20.30
2022-08-21T04:43:51.653Z,19.80
2022-08-21T04:44:51.580Z,22.00
2022-08-21T04:45:51.584Z,22.00
2022-08-21T04:46:51.534Z,21.80
2022-08-21T04:47:52.634Z,22.20
2022-08-21T04:48:51.517Z,22.40
2022-08-21T04:49:51.549Z,22.80
2022-08-21T04:50:51.478Z,21.10
2022-08-21T04:51:51.497Z,18.90
2022-08-21T04:52:51.507Z,20.40
2022-08-21T04:53:51.470Z,19.20
2022-08-21T04:54:54.807Z,17.20
2022-08-21T04:55:52.451Z,16.60
2022-08-21T04:56:51.510Z,14.10
2022-08-21T04:57:51.494Z,14.30
2022-08-21T04:58:51.445Z,14.20
2022-08-21T04:59:51.522Z,13.30
2022-08-21T05:00:51.440Z,13.00
2022-08-21T05:01:51.541Z,14.00
2022-08-21T05:02:52.392Z,12.60
2022-08-21T05:03:51.423Z,14.60
2022-08-21T05:04:51.379Z,13.30
2022-08-21T05:05:51.374Z,12.30
2022-08-21T05:06:51.287Z,12.60
2022-08-21T05:07:51.297Z,12.20
2022-08-21T05:08:51.262Z,14.80
2022-08-21T05:09:52.335Z,13.50
2022-08-21T05:10:51.296Z,14.10
2022-08-21T05:11:51.258Z,12.80
2022-08-21T05:12:51.288Z,13.70
2022-08-21T05:13:54.965Z,16.00
2022-08-21T05:14:52.218Z,16.40
2022-08-21T05:15:51.255Z,15.70
2022-08-21T05:16:51.324Z,16.70
2022-08-21T05:17:53.588Z,15.20
2022-08-21T05:18:52.197Z,15.10
2022-08-21T05:19:51.288Z,13.90
2022-08-21T05:20:51.561Z,15.40
2022-08-21T05:21:51.264Z,17.40
2022-08-21T05:22:51.402Z,17.90
2022-08-21T05:23:51.241Z,14.70
2022-08-21T05:24:51.252Z,15.60
2022-08-21T05:25:51.254Z,15.30
2022-08-21T05:26:51.308Z,17.10
2022-08-21T05:27:52.238Z,16.60
2022-08-21T05:28:51.269Z,18.90
2022-08-21T05:29:51.208Z,20.00
2022-08-21T05:30:51.193Z,21.50
2022-08-21T05:31:51.216Z,21.70
2022-08-21T05:32:51.249Z,21.00
2022-08-21T05:33:52.042Z,22.90
2022-08-21T05:34:51.158Z,24.80
2022-08-21T05:35:51.149Z,20.60
2022-08-21T05:36:51.232Z,21.60
2022-08-21T05:37:51.151Z,19.30
2022-08-21T05:38:51.174Z,19.60
2022-08-21T05:40:20.993Z,19.20
2022-08-21T05:40:52.092Z,20.30
2022-08-21T05:41:51.188Z,17.20
2022-08-21T05:42:54.914Z,19.10
2022-08-21T05:43:51.150Z,21.30
2022-08-21T05:44:51.083Z,18.20
2022-08-21T05:45:51.129Z,18.60
2022-08-21T05:46:51.113Z,17.80
2022-08-21T05:47:51.139Z,20.70
2022-08-21T05:48:51.086Z,17.70
2022-08-21T05:49:51.102Z,20.80
2022-08-21T05:50:51.051Z,17.50
2022-08-21T05:51:51.044Z,18.20
2022-08-21T05:52:51.131Z,19.40
2022-08-21T05:53:52.123Z,18.40
2022-08-21T05:54:51.025Z,18.50
2022-08-21T05:55:51.028Z,19.80
2022-08-21T05:56:51.010Z,21.70
2022-08-21T05:57:51.051Z,23.10
2022-08-21T05:58:51.022Z,26.00
2022-08-21T05:59:50.984Z,22.70
2022-08-21T06:00:50.992Z,23.60
2022-08-21T06:01:50.996Z,24.50
2022-08-21T06:02:51.075Z,23.60
2022-08-21T06:03:50.969Z,29.60
2022-08-21T06:04:51.031Z,26.10
2022-08-21T06:05:50.943Z,27.40
2022-08-21T06:06:51.000Z,27.00
2022-08-21T06:07:50.933Z,24.90
2022-08-21T06:08:50.936Z,25.90
2022-08-21T06:09:50.912Z,23.90
2022-08-21T06:10:50.891Z,24.80
2022-08-21T06:11:50.884Z,23.10
2022-08-21T06:12:50.895Z,21.20
2022-08-21T06:13:50.838Z,21.80
2022-08-21T06:14:50.830Z,22.80
2022-08-21T06:15:50.824Z,22.60
2022-08-21T06:16:51.636Z,22.60
2022-08-21T06:17:50.847Z,20.20
2022-08-21T06:18:50.796Z,21.20
2022-08-21T06:19:50.825Z,19.90
2022-08-21T06:20:50.764Z,20.60
2022-08-21T06:21:50.746Z,22.80
2022-08-21T06:22:50.815Z,23.00
2022-08-21T06:23:50.835Z,19.40
2022-08-21T06:24:51.227Z,20.60
2022-08-21T06:25:50.840Z,20.00
2022-08-21T06:26:50.765Z,21.00
2022-08-21T06:27:50.838Z,22.30
2022-08-21T06:28:50.776Z,21.00
2022-08-21T06:29:50.772Z,21.90
2022-08-21T06:30:50.800Z,23.40
2022-08-21T06:31:50.766Z,23.10
2022-08-21T06:32:50.745Z,18.80
2022-08-21T06:33:50.722Z,22.10
2022-08-21T06:34:50.715Z,19.50
2022-08-21T06:35:50.760Z,21.10
2022-08-21T06:36:50.733Z,18.00
2022-08-21T06:37:50.710Z,21.30
2022-08-21T06:38:51.584Z,20.70
2022-08-21T06:39:50.768Z,21.00
2022-08-21T06:40:50.695Z,21.30
2022-08-21T06:41:50.702Z,19.40
2022-08-21T06:42:50.673Z,22.00
2022-08-21T06:43:50.648Z,19.10
2022-08-21T06:44:50.684Z,21.40
2022-08-21T06:45:50.679Z,20.30
2022-08-21T06:46:50.680Z,19.00
2022-08-21T06:47:50.644Z,21.20
2022-08-21T06:48:50.682Z,22.10
2022-08-21T06:49:50.607Z,17.80
2022-08-21T06:50:50.695Z,20.20
2022-08-21T06:51:50.702Z,20.50
2022-08-21T06:52:50.615Z,19.50
2022-08-21T06:53:50.602Z,22.40
2022-08-21T06:54:50.604Z,19.40
2022-08-21T06:55:50.615Z,20.20
2022-08-21T06:56:50.590Z,21.30
2022-08-21T06:57:52.406Z,18.90
2022-08-21T06:58:50.541Z,21.30
2022-08-21T06:59:50.550Z,19.70
2022-08-21T07:00:50.547Z,19.30
2022-08-21T07:01:50.661Z,22.70
2022-08-21T07:02:50.451Z,20.90
2022-08-21T07:03:50.457Z,21.60
2022-08-21T07:04:50.430Z,20.30
2022-08-21T07:05:50.444Z,21.00
2022-08-21T07:06:50.437Z,19.00
2022-08-21T07:07:50.559Z,19.00
2022-08-21T07:08:50.458Z,22.20
2022-08-21T07:09:50.549Z,19.80
2022-08-21T07:10:50.491Z,19.20
2022-08-21T07:11:50.541Z,18.40
2022-08-21T07:12:51.091Z,16.20
2022-08-21T07:13:51.381Z,18.80
2022-08-21T07:14:50.428Z,19.80
2022-08-21T07:15:50.400Z,18.50
2022-08-21T07:16:50.396Z,20.40
2022-08-21T07:17:50.465Z,21.90
2022-08-21T07:18:50.418Z,20.10
2022-08-21T07:19:50.371Z,20.50
2022-08-21T07:20:50.393Z,21.30
2022-08-21T07:21:50.445Z,22.60
2022-08-21T07:22:50.402Z,21.90
2022-08-21T07:23:50.413Z,18.50
2022-08-21T07:24:50.395Z,19.60
2022-08-21T07:25:50.374Z,19.80
2022-08-21T07:26:50.329Z,20.10
2022-08-21T07:27:50.342Z,22.30
2022-08-21T07:28:50.630Z,20.00
2022-08-21T07:29:50.308Z,20.90
2022-08-21T07:30:50.352Z,19.20
2022-08-21T07:31:50.296Z,18.80
2022-08-21T07:32:50.378Z,18.70
2022-08-21T07:33:50.346Z,20.60
2022-08-21T07:34:50.281Z,19.40
2022-08-21T07:35:50.311Z,19.30
2022-08-21T07:36:50.273Z,17.70
2022-08-21T07:37:50.276Z,17.40
2022-08-21T07:38:52.597Z,17.90
2022-08-21T07:39:50.367Z,17.30
2022-08-21T07:40:50.253Z,18.20
2022-08-21T07:41:50.227Z,18.50
2022-08-21T07:42:50.251Z,18.20
2022-08-21T07:43:52.681Z,19.80
2022-08-21T07:44:50.257Z,17.80
2022-08-21T07:45:50.113Z,17.80
2022-08-21T07:46:50.143Z,18.70
2022-08-21T07:47:53.026Z,17.10
2022-08-21T07:48:51.333Z,18.60
2022-08-21T07:49:50.182Z,17.90
2022-08-21T07:50:50.156Z,19.20
2022-08-21T07:51:50.217Z,16.50
2022-08-21T07:52:50.137Z,16.10
2022-08-21T07:53:50.216Z,15.00
2022-08-21T07:54:50.110Z,16.70
2022-08-21T07:55:50.158Z,14.90
2022-08-21T07:56:50.125Z,15.60
2022-08-21T07:57:51.154Z,15.80
2022-08-21T07:58:50.102Z,14.50
2022-08-21T07:59:50.115Z,15.90
2022-08-21T08:00:50.300Z,15.50
2022-08-21T08:01:50.098Z,17.70
2022-08-21T08:02:50.057Z,14.80
2022-08-21T08:03:50.106Z,14.80
2022-08-21T08:04:50.620Z,13.30
2022-08-21T08:05:50.104Z,14.40
2022-08-21T08:06:50.067Z,12.90
2022-08-21T08:07:50.055Z,12.70
2022-08-21T08:08:50.024Z,13.80
2022-08-21T08:09:50.021Z,15.50
2022-08-21T08:10:50.058Z,13.90
2022-08-21T08:11:50.009Z,14.30
2022-08-21T08:12:50.079Z,15.00
2022-08-21T08:13:50.008Z,14.20
2022-08-21T08:14:50.025Z,14.30
2022-08-21T08:15:50.014Z,13.50
2022-08-21T08:16:50.028Z,15.10
2022-08-21T08:17:49.965Z,12.50
2022-08-21T08:18:49.949Z,14.20
2022-08-21T08:19:49.950Z,13.20
2022-08-21T08:20:49.958Z,13.80
2022-08-21T08:21:50.873Z,13.60
2022-08-21T08:22:50.346Z,14.20
2022-08-21T08:23:49.845Z,14.10
2022-08-21T08:24:49.806Z,14.20
2022-08-21T08:25:49.841Z,12.90
2022-08-21T08:26:53.763Z,17.30
2022-08-21T08:27:49.836Z,14.40
2022-08-21T08:28:49.806Z,14.70
2022-08-21T08:29:49.824Z,14.00
2022-08-21T08:30:49.766Z,12.40
2022-08-21T08:31:49.818Z,13.50
2022-08-21T08:32:50.820Z,14.70
2022-08-21T08:33:49.812Z,12.00
2022-08-21T08:34:49.771Z,14.50
2022-08-21T08:35:49.787Z,12.60
2022-08-21T08:36:49.869Z,11.50
2022-08-21T08:37:52.310Z,10.60
2022-08-21T08:38:49.735Z,12.30
2022-08-21T08:39:50.761Z,15.40
2022-08-21T08:40:49.727Z,9.60
2022-08-21T08:41:49.739Z,13.30
2022-08-21T08:42:50.820Z,13.60
2022-08-21T08:43:49.699Z,10.70
2022-08-21T08:44:49.774Z,12.00
2022-08-21T08:45:49.710Z,11.50
2022-08-21T08:46:49.772Z,11.70
2022-08-21T08:47:49.777Z,11.30
2022-08-21T08:48:53.156Z,11.20
2022-08-21T08:49:50.740Z,10.30
2022-08-21T08:50:49.727Z,12.00
2022-08-21T08:51:52.907Z,11.10
2022-08-21T08:52:49.763Z,13.30
2022-08-21T08:53:49.770Z,10.60
2022-08-21T08:54:49.714Z,11.20
2022-08-21T08:55:49.716Z,13.80
2022-08-21T08:56:49.757Z,11.10
2022-08-21T08:57:50.317Z,10.90
2022-08-21T08:58:49.788Z,12.60
2022-08-21T08:59:49.637Z,11.10
2022-08-21T09:00:49.797Z,12.20
2022-08-21T09:01:49.753Z,10.20
2022-08-21T09:02:49.691Z,12.10
2022-08-21T09:03:49.625Z,12.60
2022-08-21T09:04:49.674Z,10.40
2022-08-21T09:05:49.633Z,14.50
2022-08-21T09:06:49.616Z,10.30
2022-08-21T09:07:49.606Z,12.20
2022-08-21T09:08:49.607Z,12.80
2022-08-21T09:09:49.653Z,13.10
2022-08-21T09:10:49.596Z,11.90
2022-08-21T09:11:49.576Z,10.20
2022-08-21T09:12:50.571Z,10.80
2022-08-21T09:13:49.573Z,10.20
2022-08-21T09:14:49.627Z,12.10
2022-08-21T09:15:49.544Z,11.50
2022-08-21T09:16:49.538Z,11.60
2022-08-21T09:17:49.594Z,13.50
2022-08-21T09:18:49.572Z,12.90
2022-08-21T09:19:49.542Z,12.30
2022-08-21T09:20:49.505Z,15.90
2022-08-21T09:21:50.355Z,12.00
2022-08-21T09:22:49.415Z,12.30
2022-08-21T09:23:49.426Z,10.30
2022-08-21T09:24:51.995Z,12.40
2022-08-21T09:25:50.459Z,15.40
2022-08-21T09:26:49.379Z,11.00
2022-08-21T09:27:49.385Z,12.40
2022-08-21T09:28:49.419Z,10.60
2022-08-21T09:29:49.396Z,12.30
2022-08-21T09:30:49.785Z,10.30
2022-08-21T09:31:49.458Z,11.40
2022-08-21T09:32:49.434Z,13.00
2022-08-21T09:33:49.452Z,11.40
2022-08-21T09:34:49.446Z,10.40
2022-08-21T09:35:49.396Z,11.80
2022-08-21T09:36:49.471Z,11.50
2022-08-21T09:37:49.418Z,11.00
2022-08-21T09:38:49.402Z,11.70
2022-08-21T09:39:49.429Z,10.60
2022-08-21T09:40:49.453Z,10.40
2022-08-21T09:41:49.436Z,9.30
2022-08-21T09:42:49.390Z,12.70
2022-08-21T09:43:49.356Z,12.60
2022-08-21T09:44:49.431Z,9.00
2022-08-21T09:45:49.352Z,12.40
2022-08-21T09:46:49.363Z,10.90
2022-08-21T09:47:49.312Z,12.30
2022-08-21T09:48:49.322Z,10.00
2022-08-21T09:49:49.299Z,9.00
2022-08-21T09:50:49.311Z,12.80
2022-08-21T09:51:49.321Z,13.00
2022-08-21T09:52:49.290Z,11.10
2022-08-21T09:53:49.320Z,10.70
2022-08-21T09:54:49.255Z,8.80
2022-08-21T09:55:49.294Z,7.50
2022-08-21T09:56:49.242Z,11.50
2022-08-21T09:57:50.659Z,11.70
2022-08-21T09:58:49.226Z,10.10
2022-08-21T09:59:49.218Z,14.40
2022-08-21T10:00:49.275Z,10.60
2022-08-21T10:01:49.271Z,11.20
2022-08-21T10:02:49.255Z,11.50
2022-08-21T10:03:49.255Z,9.00
2022-08-21T10:04:49.210Z,9.10
2022-08-21T10:05:49.279Z,10.10
2022-08-21T10:06:49.200Z,9.70
2022-08-21T10:07:49.209Z,11.70
2022-08-21T10:08:49.128Z,10.20
2022-08-21T10:09:49.153Z,10.40
2022-08-21T10:10:49.077Z,11.40
2022-08-21T10:11:50.120Z,10.60
2022-08-21T10:12:49.075Z,10.10
2022-08-21T10:13:49.111Z,10.20
2022-08-21T10:14:49.072Z,9.90
2022-08-21T10:15:49.084Z,11.10
2022-08-21T10:16:49.022Z,12.00
2022-08-21T10:17:50.045Z,11.10
2022-08-21T10:18:49.066Z,10.00
2022-08-21T10:19:48.995Z,11.00
2022-08-21T10:20:49.010Z,10.20
2022-08-21T10:21:49.153Z,9.90
2022-08-21T10:22:48.976Z,8.90
2022-08-21T10:23:48.994Z,11.30
2022-08-21T10:24:49.021Z,8.00
2022-08-21T10:25:52.044Z,7.30
2022-08-21T10:26:49.940Z,7.30
2022-08-21T10:27:48.932Z,9.10
2022-08-21T10:28:49.122Z,9.50
2022-08-21T10:29:49.066Z,7.00
2022-08-21T10:30:49.008Z,9.50
2022-08-21T10:31:49.555Z,7.00
2022-08-21T10:32:48.895Z,11.80
2022-08-21T10:33:48.947Z,8.40
2022-08-21T10:34:49.342Z,12.20
2022-08-21T10:35:48.973Z,8.60
2022-08-21T10:36:48.983Z,8.30
2022-08-21T10:37:48.950Z,9.80
2022-08-21T10:39:07.118Z,8.60
2022-08-21T10:39:50.942Z,8.10
2022-08-21T10:40:48.932Z,8.00
2022-08-21T10:41:48.961Z,9.30
2022-08-21T10:42:48.910Z,10.10
2022-08-21T10:43:48.911Z,10.30
2022-08-21T10:44:48.911Z,8.70
2022-08-21T10:45:48.983Z,11.70
2022-08-21T10:46:48.902Z,10.30
2022-08-21T10:47:48.920Z,9.00
2022-08-21T10:48:48.877Z,10.40
2022-08-21T10:49:48.939Z,9.80
2022-08-21T10:50:49.906Z,10.10
2022-08-21T10:51:48.836Z,9.90
2022-08-21T10:52:48.846Z,8.50
2022-08-21T10:53:48.848Z,9.30
2022-08-21T10:54:48.834Z,7.90
2022-08-21T10:55:48.836Z,11.40
2022-08-21T10:56:49.101Z,9.00
2022-08-21T10:57:48.804Z,9.40
2022-08-21T10:58:48.803Z,7.00
2022-08-21T10:59:48.836Z,8.60
2022-08-21T11:00:48.833Z,8.20
2022-08-21T11:01:48.795Z,12.00
2022-08-21T11:02:48.781Z,9.60
2022-08-21T11:03:48.889Z,8.90
2022-08-21T12:20:52.849Z,6.80
2022-08-21T12:21:54.060Z,8.60
2022-08-21T12:22:54.113Z,7.40
2022-08-21T12:23:54.038Z,6.30
2022-08-21T12:24:54.119Z,5.60
2022-08-21T12:25:54.037Z,6.90
2022-08-21T12:26:54.124Z,6.60
2022-08-21T12:27:54.095Z,7.00
2022-08-21T12:28:53.992Z,6.50
2022-08-21T12:29:54.150Z,7.20
2022-08-21T12:30:58.010Z,7.30
2022-08-21T12:31:54.992Z,5.40
2022-08-21T12:32:53.982Z,7.40
2022-08-21T12:33:54.003Z,5.00
2022-08-21T12:34:54.038Z,7.60
2022-08-21T12:35:53.967Z,6.20
2022-08-21T12:36:53.974Z,5.70
2022-08-21T12:37:53.963Z,6.80
2022-08-21T12:38:54.346Z,6.00
2022-08-21T12:39:53.986Z,6.10
2022-08-21T12:40:53.929Z,5.00
2022-08-21T12:41:53.985Z,7.40
2022-08-21T12:43:00.662Z,6.10
2022-08-21T12:43:56.010Z,4.40
2022-08-21T12:44:53.887Z,5.50
2022-08-21T12:45:53.980Z,7.90
2022-08-21T12:46:53.879Z,4.70
2022-08-21T12:47:53.942Z,5.60
2022-08-21T12:48:53.916Z,5.20
2022-08-21T12:49:53.936Z,5.90
2022-08-21T12:50:53.868Z,7.10
2022-08-21T12:51:53.859Z,8.00
2022-08-21T12:52:53.869Z,5.50
2022-08-21T12:53:53.841Z,5.10
2022-08-21T12:54:53.870Z,5.30
2022-08-21T12:55:53.857Z,5.90
2022-08-21T12:56:53.810Z,6.30
2022-08-21T12:57:53.814Z,7.10
2022-08-21T12:58:53.811Z,6.60
2022-08-21T12:59:53.881Z,5.70
2022-08-21T13:00:53.818Z,6.70
2022-08-21T13:01:53.832Z,6.10
2022-08-21T13:02:53.839Z,7.50
2022-08-21T13:04:03.963Z,6.00
2022-08-21T13:04:54.767Z,6.00
2022-08-21T13:05:53.743Z,5.20
2022-08-21T13:06:53.677Z,4.80
2022-08-21T13:07:53.693Z,6.50
2022-08-21T13:08:53.668Z,5.90
2022-08-21T13:09:53.650Z,7.60
2022-08-21T13:10:53.718Z,6.00
2022-08-21T13:11:53.661Z,6.60
2022-08-21T13:12:53.644Z,6.90
2022-08-21T13:13:53.645Z,5.80
2022-08-21T13:14:53.626Z,7.60
2022-08-21T13:15:53.664Z,7.10
2022-08-21T13:16:53.635Z,4.00
2022-08-21T13:17:53.659Z,6.70
2022-08-21T13:18:53.592Z,5.70
2022-08-21T13:19:53.591Z,5.10
2022-08-21T13:20:53.685Z,5.50
2022-08-21T13:21:53.705Z,5.50
2022-08-21T13:22:53.652Z,5.70
2022-08-21T13:23:53.661Z,5.60
2022-08-21T13:24:53.626Z,6.10
2022-08-21T13:25:53.620Z,6.80
2022-08-21T13:26:53.665Z,5.20
2022-08-21T13:27:53.628Z,6.70
2022-08-21T13:28:53.611Z,4.90
2022-08-21T13:29:54.321Z,6.20
2022-08-21T13:30:53.588Z,5.60
2022-08-21T13:31:53.649Z,5.30
2022-08-21T13:32:53.609Z,6.90
2022-08-21T13:33:53.611Z,6.60
2022-08-21T13:34:54.257Z,5.40
2022-08-21T13:35:53.626Z,6.00
2022-08-21T13:36:53.576Z,6.10
2022-08-21T13:37:53.639Z,6.70
2022-08-21T13:38:53.592Z,4.60
2022-08-21T13:39:53.599Z,5.20
2022-08-21T13:40:53.525Z,6.90
2022-08-21T13:41:53.554Z,4.20
2022-08-21T13:42:53.522Z,6.40
2022-08-21T13:43:53.490Z,6.10
2022-08-21T13:44:53.592Z,5.60
2022-08-21T13:45:53.534Z,5.30
2022-08-21T13:46:53.517Z,4.50
2022-08-21T13:47:53.505Z,5.50
2022-08-21T13:48:53.483Z,4.90
2022-08-21T13:49:58.476Z,4.70
2022-08-21T13:50:55.450Z,6.40
2022-08-21T13:51:53.409Z,5.50
2022-08-21T13:52:53.446Z,4.40
2022-08-21T13:53:53.421Z,5.80
2022-08-21T13:54:53.379Z,4.70
2022-08-21T13:55:57.426Z,4.40
2022-08-21T13:56:54.411Z,4.70
2022-08-21T13:58:25.793Z,5.60
2022-08-21T13:59:25.419Z,5.80
2022-08-21T14:00:25.304Z,5.60
2022-08-21T14:00:53.424Z,5.60
2022-08-21T14:01:53.368Z,6.40
2022-08-21T14:02:53.334Z,4.40
2022-08-21T14:03:53.366Z,7.00
2022-08-21T14:04:53.563Z,5.40
2022-08-21T14:05:53.326Z,5.60
2022-08-21T14:06:53.356Z,4.20
2022-08-21T14:07:53.408Z,6.00
2022-08-21T14:08:53.429Z,4.50
2022-08-21T14:09:53.403Z,2.90
2022-08-21T14:10:54.839Z,7.30
2022-08-21T14:11:53.362Z,4.70
2022-08-21T14:12:53.357Z,5.00
2022-08-21T14:13:53.522Z,5.60
2022-08-21T14:14:53.353Z,5.00